FDX5819 RJBB-ZBAA
Flight info
| Callsign | FDX5819 |
|---|---|
| Flight time | N/A |
| Altitude | 34000 |
| Route | SOUJA Y324 STAGE Y38 SAPRA G585 SEL G597 ANSIM Y697 NOGON/K0906S1040 DCT DONVO DCT GUMED DCT DOVIV W55 DUMAP DUMAP9Z |
| Aircraft | B77L/H-SDE1E2E3FGHIJ2J3J4J5M1RWXY/LB1D1 |
Departure
| Time | N/A |
|---|---|
| Airport | Kansai International Airport (RJBB) |
Arrival
| Time | 2026-05-07 09:40 |
|---|---|
| Airport | Beijing Capital International Airport (ZBAA) |
| Time | Latitude | Longitude | Altitude | Speed | Heading |
|---|---|---|---|---|---|
| 2026-05-07 08:38 | 37.79706 | 121.97516 | 34018 ft | 385 kts | 276° |
| 2026-05-07 08:38 | 37.80248 | 121.94191 | 34017 ft | 384 kts | 276° |
| 2026-05-07 08:39 | 37.81324 | 121.87570 | 34018 ft | 383 kts | 276° |
| 2026-05-07 08:39 | 37.82393 | 121.80970 | 34021 ft | 383 kts | 276° |
| 2026-05-07 08:40 | 37.83450 | 121.74415 | 33971 ft | 383 kts | 276° |
| 2026-05-07 08:40 | 37.84510 | 121.67826 | 34020 ft | 382 kts | 276° |
| 2026-05-07 08:41 | 37.85565 | 121.61235 | 34033 ft | 382 kts | 276° |
| 2026-05-07 08:41 | 37.86617 | 121.54640 | 34032 ft | 383 kts | 276° |
| 2026-05-07 08:42 | 37.87668 | 121.48024 | 34051 ft | 383 kts | 276° |
| 2026-05-07 08:42 | 37.88715 | 121.41414 | 34033 ft | 383 kts | 276° |
| 2026-05-07 08:43 | 37.89758 | 121.34806 | 34035 ft | 382 kts | 276° |
| 2026-05-07 08:43 | 37.90794 | 121.28213 | 34056 ft | 382 kts | 276° |
| 2026-05-07 08:44 | 37.91826 | 121.21617 | 34061 ft | 382 kts | 276° |
| 2026-05-07 08:44 | 37.92855 | 121.15016 | 34056 ft | 382 kts | 276° |
| 2026-05-07 08:45 | 37.93880 | 121.08419 | 34051 ft | 382 kts | 276° |
| 2026-05-07 08:45 | 37.94901 | 121.01822 | 34056 ft | 381 kts | 276° |
| 2026-05-07 08:46 | 37.95901 | 120.95332 | 34090 ft | 381 kts | 276° |
| 2026-05-07 08:46 | 37.96916 | 120.88717 | 34067 ft | 383 kts | 276° |
| 2026-05-07 08:47 | 37.97931 | 120.82082 | 34066 ft | 384 kts | 276° |
| 2026-05-07 08:47 | 37.98942 | 120.75441 | 34065 ft | 384 kts | 276° |
| 2026-05-07 08:48 | 37.99952 | 120.68788 | 34068 ft | 384 kts | 276° |
| 2026-05-07 08:48 | 38.00959 | 120.62129 | 34068 ft | 385 kts | 276° |
| 2026-05-07 08:49 | 38.01881 | 120.55458 | 34064 ft | 383 kts | 274° |
| 2026-05-07 08:49 | 38.02516 | 120.48797 | 34071 ft | 383 kts | 273° |
| 2026-05-07 08:50 | 38.03134 | 120.42087 | 34068 ft | 383 kts | 273° |
| 2026-05-07 08:50 | 38.03754 | 120.35371 | 34020 ft | 385 kts | 273° |
| 2026-05-07 08:51 | 38.04378 | 120.28631 | 34064 ft | 383 kts | 273° |
| 2026-05-07 08:51 | 38.04997 | 120.21921 | 34073 ft | 383 kts | 273° |
| 2026-05-07 08:52 | 38.05611 | 120.15216 | 34073 ft | 382 kts | 273° |
| 2026-05-07 08:52 | 38.06222 | 120.08510 | 34082 ft | 383 kts | 274° |
| 2026-05-07 08:53 | 38.06830 | 120.01780 | 34079 ft | 385 kts | 274° |
| 2026-05-07 08:53 | 38.07430 | 119.95102 | 34077 ft | 385 kts | 274° |
| 2026-05-07 08:54 | 38.08031 | 119.88376 | 34076 ft | 386 kts | 274° |
| 2026-05-07 08:54 | 38.08632 | 119.81597 | 34094 ft | 387 kts | 274° |
| 2026-05-07 08:55 | 38.09232 | 119.74789 | 34085 ft | 389 kts | 274° |
| 2026-05-07 08:55 | 38.09832 | 119.67941 | 34080 ft | 391 kts | 274° |
| 2026-05-07 08:56 | 38.10431 | 119.61065 | 34076 ft | 392 kts | 274° |
| 2026-05-07 08:56 | 38.11384 | 119.54223 | 34086 ft | 395 kts | 280° |
| 2026-05-07 08:57 | 38.12972 | 119.47471 | 34085 ft | 403 kts | 286° |
| 2026-05-07 08:57 | 38.15092 | 119.40896 | 34078 ft | 406 kts | 288° |
| 2026-05-07 08:58 | 38.17287 | 119.34264 | 34075 ft | 407 kts | 288° |
| 2026-05-07 08:58 | 38.19469 | 119.27608 | 34075 ft | 408 kts | 287° |
| 2026-05-07 08:59 | 38.21635 | 119.20938 | 34073 ft | 408 kts | 288° |
| 2026-05-07 08:59 | 38.23795 | 119.14260 | 34079 ft | 408 kts | 288° |
| 2026-05-07 09:00 | 38.25953 | 119.07571 | 34079 ft | 408 kts | 288° |
| 2026-05-07 09:00 | 38.28109 | 119.00878 | 34082 ft | 408 kts | 288° |
| 2026-05-07 09:01 | 38.30207 | 118.94348 | 34075 ft | 402 kts | 288° |
| 2026-05-07 09:01 | 38.32277 | 118.87899 | 33568 ft | 388 kts | 288° |
| 2026-05-07 09:02 | 38.33289 | 118.84730 | 32925 ft | 385 kts | 288° |
| 2026-05-07 09:02 | 38.34301 | 118.81559 | 32114 ft | 386 kts | 288° |
| 2026-05-07 09:02 | 38.35316 | 118.78377 | 31358 ft | 386 kts | 288° |
| 2026-05-07 09:02 | 38.36324 | 118.75217 | 30717 ft | 383 kts | 288° |
| 2026-05-07 09:03 | 38.37322 | 118.72083 | 30066 ft | 381 kts | 288° |
| 2026-05-07 09:03 | 38.38312 | 118.68968 | 29327 ft | 378 kts | 288° |
| 2026-05-07 09:03 | 38.39295 | 118.65869 | 28705 ft | 374 kts | 289° |
| 2026-05-07 09:03 | 38.40264 | 118.62810 | 28074 ft | 371 kts | 289° |
| 2026-05-07 09:04 | 38.41215 | 118.59804 | 27478 ft | 368 kts | 289° |
| 2026-05-07 09:04 | 38.42170 | 118.56784 | 26884 ft | 366 kts | 289° |
| 2026-05-07 09:04 | 38.43119 | 118.53778 | 26303 ft | 366 kts | 290° |
| 2026-05-07 09:04 | 38.44072 | 118.50755 | 25732 ft | 370 kts | 290° |
| 2026-05-07 09:05 | 38.45048 | 118.47656 | 25164 ft | 382 kts | 290° |
| 2026-05-07 09:05 | 38.46046 | 118.44485 | 24559 ft | 387 kts | 291° |
| 2026-05-07 09:05 | 38.47051 | 118.41295 | 23941 ft | 387 kts | 291° |
| 2026-05-07 09:05 | 38.48052 | 118.38115 | 23273 ft | 385 kts | 291° |
| 2026-05-07 09:06 | 38.49048 | 118.34956 | 22615 ft | 383 kts | 292° |
| 2026-05-07 09:06 | 38.50039 | 118.31815 | 22025 ft | 379 kts | 292° |
| 2026-05-07 09:06 | 38.51018 | 118.28705 | 21443 ft | 376 kts | 292° |
| 2026-05-07 09:06 | 38.51990 | 118.25618 | 20887 ft | 373 kts | 293° |
| 2026-05-07 09:07 | 38.52953 | 118.22550 | 20329 ft | 371 kts | 293° |
| 2026-05-07 09:07 | 38.53910 | 118.19499 | 19778 ft | 369 kts | 293° |
| 2026-05-07 09:07 | 38.54861 | 118.16468 | 19239 ft | 367 kts | 293° |
| 2026-05-07 09:07 | 38.55806 | 118.13448 | 18701 ft | 365 kts | 294° |
| 2026-05-07 09:08 | 38.56744 | 118.10448 | 18138 ft | 363 kts | 294° |
| 2026-05-07 09:08 | 38.57679 | 118.07457 | 17541 ft | 361 kts | 294° |
| 2026-05-07 09:08 | 38.58594 | 118.04524 | 16984 ft | 358 kts | 294° |
| 2026-05-07 09:08 | 38.59521 | 118.01593 | 16754 ft | 347 kts | 295° |
| 2026-05-07 09:09 | 38.60462 | 117.98848 | 16727 ft | 346 kts | 296° |
| 2026-05-07 09:09 | 38.61476 | 117.95994 | 16717 ft | 358 kts | 297° |
| 2026-05-07 09:09 | 38.62516 | 117.93083 | 16688 ft | 361 kts | 297° |
| 2026-05-07 09:09 | 38.63552 | 117.90167 | 16645 ft | 360 kts | 296° |
| 2026-05-07 09:10 | 38.64580 | 117.87254 | 16609 ft | 358 kts | 296° |
| 2026-05-07 09:10 | 38.65600 | 117.84351 | 16590 ft | 357 kts | 296° |
| 2026-05-07 09:10 | 38.66617 | 117.81447 | 16542 ft | 357 kts | 296° |
| 2026-05-07 09:10 | 38.67627 | 117.78555 | 16516 ft | 356 kts | 296° |
| 2026-05-07 09:11 | 38.68636 | 117.75662 | 16488 ft | 355 kts | 296° |
| 2026-05-07 09:11 | 38.69643 | 117.72772 | 16461 ft | 356 kts | 296° |
| 2026-05-07 09:11 | 38.70650 | 117.69880 | 16427 ft | 356 kts | 296° |
| 2026-05-07 09:11 | 38.71658 | 117.66979 | 16404 ft | 356 kts | 296° |
| 2026-05-07 09:12 | 38.72666 | 117.64077 | 16375 ft | 357 kts | 296° |
| 2026-05-07 09:12 | 38.73673 | 117.61174 | 16348 ft | 357 kts | 296° |
| 2026-05-07 09:12 | 38.74681 | 117.58265 | 16317 ft | 358 kts | 296° |
| 2026-05-07 09:12 | 38.75690 | 117.55350 | 16284 ft | 358 kts | 296° |
| 2026-05-07 09:13 | 38.76699 | 117.52432 | 16254 ft | 359 kts | 296° |
| 2026-05-07 09:13 | 38.77696 | 117.49547 | 16223 ft | 359 kts | 296° |
| 2026-05-07 09:13 | 38.78706 | 117.46617 | 16186 ft | 359 kts | 296° |
| 2026-05-07 09:13 | 38.79715 | 117.43692 | 16159 ft | 358 kts | 296° |
| 2026-05-07 09:14 | 38.80721 | 117.40773 | 16129 ft | 358 kts | 296° |
| 2026-05-07 09:14 | 38.81724 | 117.37859 | 16095 ft | 358 kts | 296° |
| 2026-05-07 09:14 | 38.82725 | 117.34946 | 16077 ft | 358 kts | 296° |
| 2026-05-07 09:14 | 38.83728 | 117.32026 | 16053 ft | 357 kts | 296° |
| 2026-05-07 09:15 | 38.84746 | 117.29123 | 16021 ft | 351 kts | 300° |
| 2026-05-07 09:15 | 38.86209 | 117.26658 | 15986 ft | 348 kts | 317° |
| 2026-05-07 09:15 | 38.88132 | 117.24766 | 15977 ft | 350 kts | 329° |
| 2026-05-07 09:15 | 38.90367 | 117.23520 | 15947 ft | 352 kts | 340° |
| 2026-05-07 09:16 | 38.92703 | 117.22538 | 15916 ft | 354 kts | 340° |
| 2026-05-07 09:16 | 38.95055 | 117.21562 | 15890 ft | 356 kts | 340° |
| 2026-05-07 09:16 | 38.97417 | 117.20558 | 15848 ft | 358 kts | 340° |
| 2026-05-07 09:16 | 38.99771 | 117.19533 | 15823 ft | 358 kts | 340° |
| 2026-05-07 09:17 | 39.02125 | 117.18496 | 15785 ft | 357 kts | 340° |
| 2026-05-07 09:17 | 39.04448 | 117.17468 | 15699 ft | 358 kts | 340° |
| 2026-05-07 09:17 | 39.06801 | 117.16429 | 15553 ft | 357 kts | 340° |
| 2026-05-07 09:17 | 39.09139 | 117.15393 | 15435 ft | 353 kts | 340° |
| 2026-05-07 09:18 | 39.11455 | 117.14365 | 15324 ft | 351 kts | 340° |
| 2026-05-07 09:18 | 39.13762 | 117.13341 | 15203 ft | 350 kts | 340° |
| 2026-05-07 09:18 | 39.16065 | 117.12318 | 15078 ft | 350 kts | 340° |
| 2026-05-07 09:18 | 39.18364 | 117.11296 | 14959 ft | 350 kts | 340° |
| 2026-05-07 09:19 | 39.20667 | 117.10273 | 14838 ft | 350 kts | 340° |
| 2026-05-07 09:19 | 39.22964 | 117.09251 | 14711 ft | 349 kts | 340° |
| 2026-05-07 09:19 | 39.25260 | 117.08229 | 14580 ft | 349 kts | 340° |
| 2026-05-07 09:19 | 39.27560 | 117.07205 | 14461 ft | 349 kts | 340° |
| 2026-05-07 09:20 | 39.29080 | 117.06527 | 14380 ft | 349 kts | 340° |
| 2026-05-07 09:20 | 39.32147 | 117.05159 | 14217 ft | 349 kts | 340° |
| 2026-05-07 09:20 | 39.33665 | 117.04481 | 14135 ft | 349 kts | 340° |
| 2026-05-07 09:20 | 39.36729 | 117.03113 | 13967 ft | 348 kts | 340° |
| 2026-05-07 09:21 | 39.39018 | 117.02090 | 13800 ft | 349 kts | 340° |
| 2026-05-07 09:21 | 39.40541 | 117.01409 | 13609 ft | 350 kts | 340° |
| 2026-05-07 09:21 | 39.42834 | 117.00382 | 13352 ft | 346 kts | 340° |
| 2026-05-07 09:21 | 39.45047 | 116.99390 | 13105 ft | 342 kts | 340° |
| 2026-05-07 09:22 | 39.47282 | 116.98388 | 12863 ft | 339 kts | 340° |
| 2026-05-07 09:22 | 39.49513 | 116.97387 | 12629 ft | 338 kts | 340° |
| 2026-05-07 09:22 | 39.51735 | 116.96389 | 12393 ft | 338 kts | 340° |
| 2026-05-07 09:22 | 39.53952 | 116.95392 | 12146 ft | 337 kts | 340° |
| 2026-05-07 09:23 | 39.56167 | 116.94395 | 11919 ft | 336 kts | 340° |
| 2026-05-07 09:23 | 39.58379 | 116.93400 | 11699 ft | 333 kts | 340° |
| 2026-05-07 09:23 | 39.60537 | 116.92430 | 11432 ft | 324 kts | 341° |
| 2026-05-07 09:23 | 39.62650 | 116.91708 | 11214 ft | 314 kts | 349° |
| 2026-05-07 09:24 | 39.64782 | 116.91339 | 10985 ft | 304 kts | 352° |
| 2026-05-07 09:24 | 39.66846 | 116.91076 | 10719 ft | 291 kts | 353° |
| 2026-05-07 09:24 | 39.68830 | 116.90831 | 10508 ft | 282 kts | 352° |
| 2026-05-07 09:24 | 39.70753 | 116.90581 | 10295 ft | 273 kts | 352° |
| 2026-05-07 09:25 | 39.72609 | 116.90327 | 10107 ft | 264 kts | 352° |
| 2026-05-07 09:25 | 39.74409 | 116.90072 | 9918 ft | 256 kts | 351° |
| 2026-05-07 09:25 | 39.76149 | 116.89820 | 9703 ft | 249 kts | 351° |
| 2026-05-07 09:25 | 39.77852 | 116.89568 | 9551 ft | 247 kts | 351° |
| 2026-05-07 09:26 | 39.79572 | 116.89310 | 9371 ft | 250 kts | 351° |
| 2026-05-07 09:26 | 39.81309 | 116.89049 | 9202 ft | 253 kts | 351° |
| 2026-05-07 09:26 | 39.83063 | 116.88783 | 9028 ft | 255 kts | 351° |
| 2026-05-07 09:26 | 39.84802 | 116.88520 | 8843 ft | 256 kts | 351° |
| 2026-05-07 09:27 | 39.86604 | 116.88247 | 8648 ft | 256 kts | 351° |
| 2026-05-07 09:27 | 39.88361 | 116.87981 | 8464 ft | 253 kts | 351° |
| 2026-05-07 09:27 | 39.91817 | 116.87456 | 8110 ft | 248 kts | 351° |
| 2026-05-07 09:28 | 39.93531 | 116.87195 | 7943 ft | 248 kts | 351° |
| 2026-05-07 09:28 | 39.95243 | 116.86933 | 7752 ft | 248 kts | 351° |
| 2026-05-07 09:28 | 39.96964 | 116.86673 | 7461 ft | 250 kts | 352° |
| 2026-05-07 09:28 | 39.98716 | 116.86406 | 7218 ft | 255 kts | 352° |
| 2026-05-07 09:29 | 40.00472 | 116.86138 | 7073 ft | 254 kts | 352° |
| 2026-05-07 09:29 | 40.02172 | 116.85702 | 6950 ft | 246 kts | 334° |
| 2026-05-07 09:29 | 40.03509 | 116.84344 | 6876 ft | 248 kts | 307° |
| 2026-05-07 09:29 | 40.04294 | 116.82328 | 6801 ft | 254 kts | 288° |
| 2026-05-07 09:30 | 40.04444 | 116.80033 | 6704 ft | 256 kts | 266° |
| 2026-05-07 09:30 | 40.04165 | 116.77733 | 6617 ft | 259 kts | 255° |
| 2026-05-07 09:30 | 40.03214 | 116.75717 | 6533 ft | 269 kts | 225° |
| 2026-05-07 09:30 | 40.01578 | 116.74498 | 6448 ft | 277 kts | 196° |
| 2026-05-07 09:31 | 39.99651 | 116.74375 | 6365 ft | 279 kts | 175° |
| 2026-05-07 09:31 | 39.97722 | 116.74671 | 6265 ft | 279 kts | 174° |
| 2026-05-07 09:31 | 39.95824 | 116.74984 | 6095 ft | 278 kts | 174° |
| 2026-05-07 09:31 | 39.93910 | 116.75302 | 5905 ft | 276 kts | 174° |
| 2026-05-07 09:32 | 39.92011 | 116.75615 | 5725 ft | 273 kts | 174° |
| 2026-05-07 09:32 | 39.90132 | 116.75917 | 5544 ft | 271 kts | 174° |
| 2026-05-07 09:32 | 39.88266 | 116.76213 | 5368 ft | 269 kts | 174° |
| 2026-05-07 09:32 | 39.86415 | 116.76504 | 5192 ft | 267 kts | 175° |
| 2026-05-07 09:33 | 39.84622 | 116.76313 | 5036 ft | 258 kts | 207° |
| 2026-05-07 09:33 | 39.83285 | 116.74897 | 5005 ft | 245 kts | 240° |
| 2026-05-07 09:33 | 39.82618 | 116.72906 | 4986 ft | 237 kts | 258° |
| 2026-05-07 09:33 | 39.82406 | 116.70812 | 4978 ft | 232 kts | 272° |
| 2026-05-07 09:34 | 39.82432 | 116.68708 | 4976 ft | 233 kts | 274° |
| 2026-05-07 09:34 | 39.82478 | 116.66605 | 4966 ft | 233 kts | 274° |
| 2026-05-07 09:34 | 39.82569 | 116.64508 | 4903 ft | 231 kts | 285° |
| 2026-05-07 09:34 | 39.83302 | 116.62709 | 4792 ft | 227 kts | 317° |
| 2026-05-07 09:35 | 39.84643 | 116.61718 | 4532 ft | 217 kts | 341° |
| 2026-05-07 09:35 | 39.86069 | 116.61164 | 4240 ft | 211 kts | 345° |
| 2026-05-07 09:35 | 39.87474 | 116.60696 | 3979 ft | 208 kts | 346° |
| 2026-05-07 09:35 | 39.88851 | 116.60346 | 3775 ft | 200 kts | 350° |
| 2026-05-07 09:36 | 39.90216 | 116.60099 | 3457 ft | 195 kts | 352° |
| 2026-05-07 09:36 | 39.91543 | 116.59887 | 3199 ft | 190 kts | 352° |
| 2026-05-07 09:36 | 39.92829 | 116.59686 | 2954 ft | 181 kts | 352° |
| 2026-05-07 09:36 | 39.94047 | 116.59500 | 2716 ft | 169 kts | 352° |
| 2026-05-07 09:37 | 39.95188 | 116.59320 | 2499 ft | 166 kts | 352° |
| 2026-05-07 09:37 | 39.96330 | 116.59141 | 2313 ft | 163 kts | 352° |
| 2026-05-07 09:37 | 39.97426 | 116.58973 | 2070 ft | 153 kts | 352° |
| 2026-05-07 09:37 | 39.98463 | 116.58813 | 1872 ft | 149 kts | 352° |
| 2026-05-07 09:38 | 39.99492 | 116.58645 | 1704 ft | 150 kts | 352° |
| 2026-05-07 09:38 | 40.00518 | 116.58491 | 1463 ft | 147 kts | 352° |
| 2026-05-07 09:38 | 40.01536 | 116.58341 | 1264 ft | 148 kts | 352° |
| 2026-05-07 09:38 | 40.02560 | 116.58166 | 1037 ft | 150 kts | 352° |
| 2026-05-07 09:39 | 40.03601 | 116.58001 | 787 ft | 152 kts | 350° |
| 2026-05-07 09:39 | 40.04623 | 116.57860 | 574 ft | 143 kts | 351° |
| 2026-05-07 09:39 | 40.05605 | 116.57702 | 429 ft | 143 kts | 349° |
| 2026-05-07 09:39 | 40.06611 | 116.57539 | 276 ft | 146 kts | 351° |
| 2026-05-07 09:40 | 40.07620 | 116.57398 | 155 ft | 144 kts | 352° |
| 2026-05-07 09:40 | 40.08513 | 116.57244 | 126 ft | 110 kts | 353° |
| 2026-05-07 09:40 | 40.09081 | 116.57150 | 125 ft | 50 kts | 353° |
| 2026-05-07 09:40 | 40.09392 | 116.57106 | 125 ft | 40 kts | 2° |